QRO weather

Querétaro Intercontinental Airport
Querétaro, Queretaro, Mexico

Public forecast

Using degrees Celsius for public forecast. Weather courtesy of forecast.io.

METAR (pilot weather report)

Retrieved 2019/04/25 07:41 UTC (21 minutes ago):

MMQT 250741Z 00000KT 6SM SCT020 BKN250 17/M02 A3019 RMK 8/502 HZY

TAF (pilot weather forecast)

Retrieved 2019/04/25 06:05 UTC (2 hours ago):

TAF MMQT 250502Z 2506/2606 33005KT 6SM HZ SCT020 BKN250 FM251800 33012KT P6SM SCT100 BKN250 FM260300 03005KT P6SM SCT020 BKN250